Time;durP1;ratioP1;P1;durP2;ratioP2;P2;SDS_P1;SDS_P2;PMS_P1;PMS_P2;Temp;Humidity;BMP_temperature;BMP_pressure;BME280_temperature;BME280_humidity;BME280_pressure;Samples;Min_cycle;Max_cycle;Signal;HPM_P1;HPM_P2
2022/11/20 00:00:35;;;;;;;19.13;9.02;;;2.80;99.90;;;;;;5086724;28;20051;-75
2022/11/20 00:03:01;;;;;;;21.42;9.30;;;2.70;99.90;;;;;;5087038;28;20025;-74
2022/11/20 00:05:26;;;;;;;21.65;9.80;;;2.70;99.90;;;;;;5093749;28;20028;-75
2022/11/20 00:07:52;;;;;;;19.40;9.65;;;2.60;99.90;;;;;;5099828;28;20031;-74
2022/11/20 00:10:17;;;;;;;16.38;8.82;;;2.60;99.90;;;;;;5091810;28;20020;-76
2022/11/20 00:12:44;;;;;;;20.85;9.02;;;2.60;99.90;;;;;;5087222;28;20029;-75
2022/11/20 00:15:10;;;;;;;20.23;9.75;;;2.60;99.90;;;;;;5086891;28;20055;-79
2022/11/20 00:17:35;;;;;;;16.90;8.65;;;2.70;99.90;;;;;;5086884;28;20045;-77
2022/11/20 00:20:01;;;;;;;18.35;10.07;;;2.80;99.90;;;;;;5085049;28;20032;-73
2022/11/20 00:22:26;;;;;;;21.35;9.63;;;2.60;99.90;;;;;;5086106;28;20049;-75
2022/11/20 00:24:52;;;;;;;18.20;9.25;;;2.60;99.90;;;;;;5100241;28;20028;-73
2022/11/20 00:27:18;;;;;;;25.92;10.15;;;2.60;99.90;;;;;;5089331;28;20043;-73
2022/11/20 00:29:43;;;;;;;25.45;9.85;;;2.60;99.90;;;;;;5101359;28;20143;-74
2022/11/20 00:32:09;;;;;;;18.75;9.80;;;2.60;99.90;;;;;;5097033;28;20062;-74
2022/11/20 00:34:35;;;;;;;20.92;10.00;;;2.70;99.90;;;;;;5092725;28;20029;-74
2022/11/20 00:37:00;;;;;;;19.42;9.65;;;2.70;99.90;;;;;;5086134;28;20045;-73
2022/11/20 00:39:26;;;;;;;22.63;10.32;;;2.70;99.90;;;;;;5090662;28;20057;-74
2022/11/20 00:41:51;;;;;;;17.77;9.73;;;2.70;99.90;;;;;;5106425;28;20032;-74
2022/11/20 00:44:17;;;;;;;20.73;10.15;;;2.70;99.90;;;;;;5087236;28;20024;-75
2022/11/20 00:46:42;;;;;;;23.02;10.65;;;2.70;99.90;;;;;;5086414;28;20060;-75
2022/11/20 00:49:08;;;;;;;22.30;9.68;;;2.70;99.90;;;;;;5084613;28;20029;-74
2022/11/20 00:51:34;;;;;;;18.48;9.75;;;2.70;99.90;;;;;;5086240;28;20036;-74
2022/11/20 00:54:01;;;;;;;21.80;10.07;;;2.70;99.90;;;;;;5086040;28;20021;-74
2022/11/20 00:56:27;;;;;;;19.00;8.80;;;2.70;99.90;;;;;;5085688;28;20029;-74
2022/11/20 00:58:53;;;;;;;21.08;9.07;;;2.60;99.90;;;;;;5085965;28;20266;-73
2022/11/20 01:01:23;;;;;;;18.17;9.05;;;2.70;99.90;;;;;;5089168;28;20032;-72
2022/11/20 01:03:52;;;;;;;19.88;9.30;;;2.80;99.90;;;;;;5085692;28;20055;-73
2022/11/20 01:06:27;;;;;;;20.33;8.52;;;2.70;99.90;;;;;;5085563;28;20576;-74
2022/11/20 01:08:56;;;;;;;16.08;8.00;;;2.70;99.90;;;;;;5085665;28;20033;-72
2022/11/20 01:11:27;;;;;;;23.00;8.57;;;2.70;99.90;;;;;;5085564;28;20024;-72
2022/11/20 01:13:54;;;;;;;15.25;7.25;;;2.70;99.90;;;;;;5085902;28;20031;-72
2022/11/20 01:16:27;;;;;;;17.50;7.30;;;2.70;99.90;;;;;;5085642;28;20121;-75
2022/11/20 01:18:56;;;;;;;11.60;6.45;;;2.70;99.90;;;;;;5085768;28;20036;-73
2022/11/20 01:21:24;;;;;;;14.13;6.50;;;2.70;99.90;;;;;;5103086;28;20051;-73
2022/11/20 01:23:51;;;;;;;10.57;6.63;;;2.70;99.90;;;;;;5091357;28;20024;-73
2022/11/20 01:26:19;;;;;;;16.42;7.15;;;2.80;99.90;;;;;;5105351;28;20027;-75
2022/11/20 01:28:45;;;;;;;14.82;7.38;;;2.70;99.90;;;;;;5087347;28;20032;-73
2022/11/20 01:31:17;;;;;;;16.33;8.05;;;2.70;99.90;;;;;;5091055;28;20062;-72
2022/11/20 01:33:45;;;;;;;18.15;8.63;;;2.70;99.90;;;;;;5085232;28;20053;-73
2022/11/20 01:36:12;;;;;;;19.35;9.65;;;2.70;99.90;;;;;;5097433;28;20032;-73
2022/11/20 01:38:38;;;;;;;20.10;9.48;;;2.70;99.90;;;;;;5105447;28;20051;-73
2022/11/20 01:41:04;;;;;;;24.63;10.77;;;2.70;99.90;;;;;;5096538;28;20031;-73
2022/11/20 01:43:30;;;;;;;25.35;12.20;;;2.70;99.90;;;;;;5104170;28;20013;-73
2022/11/20 01:46:00;;;;;;;27.10;12.55;;;2.70;99.90;;;;;;5105035;28;20024;-73
2022/11/20 01:48:36;;;;;;;27.02;13.18;;;2.70;99.90;;;;;;5104676;28;20058;-73
2022/11/20 01:51:03;;;;;;;26.15;13.32;;;2.60;99.90;;;;;;5105136;28;20031;-74
2022/11/20 01:53:33;;;;;;;33.05;14.95;;;2.60;99.90;;;;;;5103213;28;20123;-73
2022/11/20 01:56:02;;;;;;;30.00;14.77;;;2.60;99.90;;;;;;5104956;28;20027;-74
2022/11/20 01:58:32;;;;;;;35.88;15.43;;;2.50;99.90;;;;;;5103515;28;20736;-73
2022/11/20 02:00:57;;;;;;;30.35;15.27;;;2.40;99.90;;;;;;5104856;28;20039;-73
2022/11/20 02:03:23;;;;;;;33.05;15.25;;;2.40;99.90;;;;;;5099195;28;20036;-73
2022/11/20 02:06:07;;;;;;;31.23;15.25;;;2.40;99.90;;;;;;5085859;28;20036;-76
2022/11/20 02:08:34;;;;;;;32.40;16.45;;;2.40;99.90;;;;;;5101782;28;20024;-74
2022/11/20 02:11:00;;;;;;;39.10;16.13;;;2.30;99.90;;;;;;5104874;28;20039;-74
2022/11/20 02:13:43;;;;;;;38.03;17.00;;;2.30;99.90;;;;;;5104475;28;20040;-73
2022/11/20 02:16:27;;;;;;;34.97;16.38;;;2.20;99.90;;;;;;5098739;28;20062;-75
2022/11/20 02:18:56;;;;;;;35.25;16.05;;;2.20;99.90;;;;;;5096861;28;20074;-74
2022/11/20 02:21:25;;;;;;;41.40;16.77;;;2.20;99.90;;;;;;5083945;28;20045;-75
2022/11/20 02:24:14;;;;;;;38.05;16.73;;;2.10;99.90;;;;;;5090469;28;20024;-75
2022/11/20 02:27:05;;;;;;;35.22;15.77;;;2.10;99.90;;;;;;5104571;28;20472;-75
2022/11/20 02:29:53;;;;;;;35.25;17.80;;;2.10;99.90;;;;;;5104214;28;20035;-74
2022/11/20 02:32:33;;;;;;;34.60;16.48;;;2.10;99.90;;;;;;5103571;28;20058;-76
2022/11/20 02:35:07;;;;;;;36.13;16.98;;;2.00;99.90;;;;;;5085134;28;20029;-74
2022/11/20 02:37:36;;;;;;;31.27;15.90;;;2.00;99.90;;;;;;5093483;28;20075;-77
2022/11/20 02:40:02;;;;;;;32.72;16.83;;;2.00;99.90;;;;;;5103188;28;20031;-74
2022/11/20 02:42:28;;;;;;;34.58;16.35;;;2.00;99.90;;;;;;5102585;28;20488;-77
2022/11/20 02:45:03;;;;;;;35.10;16.77;;;2.00;99.90;;;;;;5104492;28;20090;-74
2022/11/20 02:47:28;;;;;;;33.45;15.68;;;2.00;99.90;;;;;;5104524;28;20028;-74
2022/11/20 02:49:54;;;;;;;33.47;16.50;;;2.00;99.90;;;;;;5095870;28;20028;-75
2022/11/20 02:52:19;;;;;;;35.28;16.33;;;2.00;99.90;;;;;;5083755;28;20033;-74
2022/11/20 02:54:45;;;;;;;32.22;15.73;;;2.00;99.90;;;;;;5083865;28;20052;-75
2022/11/20 02:57:13;;;;;;;40.40;16.33;;;2.00;99.90;;;;;;5083756;28;20040;-73
2022/11/20 02:59:38;;;;;;;35.50;15.68;;;2.00;99.90;;;;;;5096445;28;20031;-73
2022/11/20 03:02:04;;;;;;;37.65;16.30;;;2.00;99.90;;;;;;5102849;28;20111;-74
2022/11/20 03:04:30;;;;;;;32.95;17.02;;;2.00;99.90;;;;;;5103731;28;20032;-74
2022/11/20 03:06:59;;;;;;;33.47;15.90;;;2.00;99.90;;;;;;5104084;28;20040;-75
2022/11/20 03:09:25;;;;;;;32.33;16.35;;;2.00;99.90;;;;;;5103842;28;20043;-74
2022/11/20 03:11:51;;;;;;;35.75;15.85;;;2.00;99.90;;;;;;5102572;28;20484;-74
2022/11/20 03:14:16;;;;;;;31.95;15.15;;;2.00;99.90;;;;;;5086282;28;20044;-74
2022/11/20 03:16:43;;;;;;;37.35;15.55;;;2.00;99.90;;;;;;5084029;28;20028;-74
2022/11/20 03:19:08;;;;;;;31.50;15.40;;;2.00;99.90;;;;;;5092876;28;20031;-75
2022/11/20 03:21:34;;;;;;;37.05;15.77;;;2.00;99.90;;;;;;5104122;28;20052;-73
2022/11/20 03:24:00;;;;;;;38.17;17.05;;;2.00;99.90;;;;;;5103864;28;20024;-72
2022/11/20 03:26:27;;;;;;;37.75;16.83;;;2.00;99.90;;;;;;5103914;28;20028;-73
2022/11/20 03:28:55;;;;;;;35.65;16.02;;;2.00;99.90;;;;;;5104926;28;20031;-74
2022/11/20 03:31:23;;;;;;;34.97;16.50;;;2.00;99.90;;;;;;5103698;28;20526;-73
2022/11/20 03:33:50;;;;;;;33.70;16.13;;;2.00;99.90;;;;;;5103616;28;20031;-73
2022/11/20 03:36:17;;;;;;;30.88;14.93;;;2.00;99.90;;;;;;5103449;28;20032;-74
2022/11/20 03:38:43;;;;;;;33.60;16.48;;;2.10;99.90;;;;;;5103847;28;20104;-76
2022/11/20 03:41:11;;;;;;;43.42;17.13;;;2.10;99.90;;;;;;5104165;28;20036;-74
2022/11/20 03:43:37;;;;;;;34.65;15.10;;;2.00;99.90;;;;;;5104653;28;20016;-75
2022/11/20 03:46:04;;;;;;;35.95;16.55;;;2.00;99.90;;;;;;5107440;28;20480;-74
2022/11/20 03:48:30;;;;;;;32.13;15.02;;;2.00;99.90;;;;;;5107435;28;20020;-74
2022/11/20 03:51:20;;;;;;;30.63;14.80;;;2.00;99.90;;;;;;5107291;28;20031;-73
2022/11/20 03:53:47;;;;;;;34.78;16.30;;;2.00;99.90;;;;;;5106754;28;20031;-74
2022/11/20 03:56:16;;;;;;;35.65;15.80;;;2.00;99.90;;;;;;5100944;28;20415;-75
2022/11/20 03:58:43;;;;;;;34.20;16.20;;;2.00;99.90;;;;;;5085365;28;20065;-73
2022/11/20 04:01:12;;;;;;;30.17;14.95;;;2.00;99.90;;;;;;5105122;28;20081;-74
2022/11/20 04:03:39;;;;;;;33.65;15.20;;;2.00;99.90;;;;;;5106834;28;20085;-77
2022/11/20 04:06:24;;;;;;;32.38;14.75;;;2.00;99.90;;;;;;5085328;28;20081;-74
2022/11/20 04:08:50;;;;;;;33.15;15.75;;;2.00;99.90;;;;;;5086626;28;20071;-73
2022/11/20 04:11:19;;;;;;;33.85;14.93;;;2.00;99.90;;;;;;5086888;28;20032;-74
2022/11/20 04:13:51;;;;;;;26.23;12.93;;;2.00;99.90;;;;;;5097295;28;20384;-74
2022/11/20 04:16:18;;;;;;;33.72;14.35;;;2.00;99.90;;;;;;5106872;28;20028;-74
2022/11/20 04:18:43;;;;;;;28.75;14.38;;;2.10;99.90;;;;;;5106996;28;20040;-72
2022/11/20 04:21:10;;;;;;;36.75;14.93;;;2.10;99.90;;;;;;5104869;28;20036;-74
2022/11/20 04:23:36;;;;;;;31.65;14.35;;;2.20;99.90;;;;;;5107178;28;20413;-78
2022/11/20 04:26:10;;;;;;;30.27;14.25;;;2.10;99.90;;;;;;5106756;28;20103;-72
2022/11/20 04:28:37;;;;;;;33.55;14.85;;;2.10;99.90;;;;;;5106910;28;20039;-73
2022/11/20 04:31:15;;;;;;;30.30;14.65;;;2.00;99.90;;;;;;5106802;28;20032;-74
2022/11/20 04:33:42;;;;;;;30.60;13.95;;;2.00;99.90;;;;;;5086966;28;20051;-76
2022/11/20 04:36:15;;;;;;;34.88;13.02;;;1.90;99.90;;;;;;5085990;28;20024;-78
2022/11/20 04:38:41;;;;;;;31.70;13.68;;;1.90;99.90;;;;;;5085008;28;20033;-73
2022/11/20 04:41:09;;;;;;;31.35;14.25;;;1.90;99.90;;;;;;5094502;28;20040;-73
2022/11/20 04:43:35;;;;;;;31.25;13.50;;;1.90;99.90;;;;;;5106232;28;20020;-74
2022/11/20 04:46:01;;;;;;;30.17;13.27;;;1.90;99.90;;;;;;5106421;28;20031;-75
2022/11/20 04:48:28;;;;;;;27.90;13.20;;;1.80;99.90;;;;;;5104768;28;20035;-72
2022/11/20 04:50:54;;;;;;;29.17;13.25;;;1.90;99.90;;;;;;5105704;28;20054;-77
2022/11/20 04:53:20;;;;;;;31.25;14.60;;;1.90;99.90;;;;;;5106259;28;20031;-74
2022/11/20 04:55:46;;;;;;;30.17;14.15;;;1.90;99.90;;;;;;5103897;28;20491;-74
2022/11/20 04:58:13;;;;;;;32.25;13.82;;;1.90;99.90;;;;;;5105038;28;20035;-73
2022/11/20 05:00:39;;;;;;;29.25;12.90;;;1.90;99.90;;;;;;5106444;28;20028;-81
2022/11/20 05:03:04;;;;;;;25.00;12.82;;;1.90;99.90;;;;;;5104646;28;20070;-74
2022/11/20 05:05:30;;;;;;;30.83;13.88;;;1.90;99.90;;;;;;5105685;28;20480;-78
2022/11/20 05:07:57;;;;;;;30.73;14.02;;;1.90;99.90;;;;;;5105922;28;20096;-76
2022/11/20 05:10:23;;;;;;;27.20;12.52;;;1.90;99.90;;;;;;5104449;28;20024;-74
2022/11/20 05:12:49;;;;;;;27.70;13.13;;;1.90;99.90;;;;;;5105834;28;20095;-74
2022/11/20 05:15:15;;;;;;;31.13;13.13;;;1.90;99.90;;;;;;5106048;28;20069;-77
2022/11/20 05:17:41;;;;;;;23.17;11.40;;;1.90;99.90;;;;;;5104112;28;20045;-73
2022/11/20 05:20:08;;;;;;;24.77;12.75;;;1.90;99.90;;;;;;5104741;28;20035;-75
2022/11/20 05:22:34;;;;;;;28.48;12.55;;;1.80;99.90;;;;;;5105189;28;20570;-74
2022/11/20 05:24:59;;;;;;;25.45;11.40;;;1.90;99.90;;;;;;5105380;28;20028;-73
2022/11/20 05:27:25;;;;;;;26.40;11.82;;;1.90;99.90;;;;;;5104414;28;20058;-74
2022/11/20 05:29:50;;;;;;;23.02;11.23;;;1.80;99.90;;;;;;5105439;28;20020;-74
2022/11/20 05:32:16;;;;;;;25.90;12.18;;;1.80;99.90;;;;;;5105332;28;20020;-76
2022/11/20 05:34:42;;;;;;;22.65;11.43;;;1.80;99.90;;;;;;5104591;28;20046;-76
2022/11/20 05:37:08;;;;;;;25.08;11.85;;;1.80;99.90;;;;;;5105721;28;20051;-74
2022/11/20 05:39:33;;;;;;;22.52;10.68;;;1.80;99.90;;;;;;5105597;28;20050;-74
2022/11/20 05:44:43;;;;;;;25.92;12.15;;;1.80;99.90;;;;;;5105222;28;20085;-73
2022/11/20 05:47:09;;;;;;;29.30;12.35;;;1.80;99.90;;;;;;5105409;28;20032;-74
2022/11/20 05:49:34;;;;;;;23.77;11.35;;;1.80;99.90;;;;;;5104957;28;20111;-74
2022/11/20 05:52:00;;;;;;;25.02;11.63;;;1.90;99.90;;;;;;5105182;28;20028;-73
2022/11/20 05:54:25;;;;;;;24.45;11.50;;;1.90;99.90;;;;;;5104659;28;20055;-78
2022/11/20 05:56:51;;;;;;;25.70;11.63;;;1.90;99.90;;;;;;5105116;28;20032;-73
2022/11/20 05:59:16;;;;;;;25.85;11.60;;;1.90;99.90;;;;;;5104809;28;20028;-72
2022/11/20 06:01:42;;;;;;;26.95;11.32;;;1.90;99.90;;;;;;5105437;28;20056;-73
2022/11/20 06:04:08;;;;;;;24.70;10.65;;;1.90;99.90;;;;;;5105257;28;20046;-74
2022/11/20 06:06:33;;;;;;;23.33;12.90;;;1.90;99.90;;;;;;5104778;28;20039;-74
2022/11/20 06:08:59;;;;;;;26.83;11.77;;;1.90;99.90;;;;;;5105243;28;20061;-72
2022/11/20 06:11:25;;;;;;;23.42;11.88;;;1.90;99.90;;;;;;5104735;28;20024;-72
2022/11/20 06:13:51;;;;;;;24.00;12.00;;;1.90;99.90;;;;;;5104644;28;20039;-73
2022/11/20 06:16:19;;;;;;;24.23;12.07;;;2.00;99.90;;;;;;5105376;28;20632;-74
2022/11/20 06:18:45;;;;;;;28.55;11.55;;;2.00;99.90;;;;;;5105362;28;20036;-73
2022/11/20 06:21:20;;;;;;;24.35;11.70;;;2.00;99.90;;;;;;5105197;28;20051;-72
2022/11/20 06:23:48;;;;;;;30.80;11.10;;;2.00;99.90;;;;;;5103524;28;20074;-72
2022/11/20 06:26:25;;;;;;;24.30;11.13;;;2.00;99.90;;;;;;5104508;28;20040;-75
2022/11/20 06:28:52;;;;;;;20.73;11.10;;;2.00;99.90;;;;;;5104879;28;20039;-73
2022/11/20 06:31:20;;;;;;;24.52;11.77;;;2.00;99.90;;;;;;5104812;28;20077;-74
2022/11/20 06:33:46;;;;;;;24.90;11.05;;;2.00;99.90;;;;;;5104416;28;20056;-74
2022/11/20 06:36:13;;;;;;;24.15;11.23;;;2.10;99.90;;;;;;5105196;28;20050;-73
2022/11/20 06:38:40;;;;;;;21.50;11.18;;;2.10;99.90;;;;;;5102757;28;20040;-74
2022/11/20 06:41:07;;;;;;;26.55;11.50;;;2.10;99.90;;;;;;5086014;28;20039;-75
2022/11/20 06:43:32;;;;;;;21.85;10.90;;;2.10;99.90;;;;;;5092297;28;20044;-74
2022/11/20 06:45:59;;;;;;;21.23;10.70;;;2.10;99.90;;;;;;5084626;28;20028;-75
2022/11/20 06:48:27;;;;;;;22.35;10.68;;;2.10;99.90;;;;;;5088151;28;20065;-74
2022/11/20 06:50:53;;;;;;;24.50;10.95;;;2.10;99.90;;;;;;5089069;28;20012;-74
2022/11/20 06:53:18;;;;;;;21.75;11.00;;;2.20;99.90;;;;;;5092131;28;20020;-76
2022/11/20 06:55:46;;;;;;;24.73;11.13;;;2.30;99.90;;;;;;5108808;28;20385;-76
2022/11/20 06:58:15;;;;;;;23.15;10.98;;;2.20;99.90;;;;;;5084730;28;20472;-76
2022/11/20 07:00:44;;;;;;;24.35;10.55;;;2.10;99.90;;;;;;5082323;28;20040;-77
2022/11/20 07:03:11;;;;;;;28.02;11.07;;;2.10;99.90;;;;;;5092619;28;20024;-76
2022/11/20 07:05:38;;;;;;;26.27;11.00;;;2.10;99.90;;;;;;5087746;28;20044;-75
2022/11/20 07:08:04;;;;;;;26.13;12.20;;;2.10;99.90;;;;;;5083282;28;20388;-74
2022/11/20 07:10:30;;;;;;;18.88;10.30;;;2.10;99.90;;;;;;5083727;28;20068;-75
2022/11/20 07:12:56;;;;;;;24.63;10.55;;;2.10;99.90;;;;;;5087684;28;20058;-74
2022/11/20 07:15:23;;;;;;;22.08;11.18;;;2.10;99.90;;;;;;5089843;28;20028;-74
2022/11/20 07:17:49;;;;;;;20.45;10.40;;;2.10;99.90;;;;;;5090410;28;20075;-75
2022/11/20 07:20:15;;;;;;;20.70;10.48;;;2.10;99.90;;;;;;5093226;28;20028;-75
2022/11/20 07:22:41;;;;;;;24.40;11.75;;;2.10;99.90;;;;;;5098081;28;20101;-76
2022/11/20 07:25:08;;;;;;;31.13;14.73;;;2.20;99.90;;;;;;5086419;28;20071;-76
2022/11/20 07:27:34;;;;;;;27.58;13.82;;;2.20;99.90;;;;;;5092584;28;20035;-75
2022/11/20 07:30:00;;;;;;;45.60;21.27;;;2.20;99.90;;;;;;5097149;28;20111;-74
2022/11/20 07:32:25;;;;;;;54.50;25.17;;;2.20;99.90;;;;;;5087706;28;20074;-74
2022/11/20 07:34:51;;;;;;;34.15;14.52;;;2.20;99.90;;;;;;5088738;28;20036;-75
2022/11/20 07:37:17;;;;;;;24.80;11.75;;;2.10;99.90;;;;;;5091586;28;20048;-75
2022/11/20 07:39:43;;;;;;;21.20;10.45;;;2.20;99.90;;;;;;5090859;28;20036;-74
2022/11/20 07:42:09;;;;;;;31.55;11.50;;;2.10;99.90;;;;;;5094323;28;20035;-75
2022/11/20 07:44:35;;;;;;;24.85;11.73;;;2.10;99.90;;;;;;5087287;28;20036;-74
2022/11/20 07:47:01;;;;;;;18.40;10.43;;;2.10;99.90;;;;;;5087296;28;20032;-74
2022/11/20 07:49:27;;;;;;;23.55;12.02;;;2.10;99.90;;;;;;5086654;28;20032;-74
2022/11/20 07:51:53;;;;;;;27.90;11.73;;;2.10;99.90;;;;;;5099576;28;20531;-75
2022/11/20 07:54:20;;;;;;;29.88;13.55;;;2.20;99.90;;;;;;5107175;28;20062;-76
2022/11/20 07:56:46;;;;;;;24.80;12.18;;;2.20;99.90;;;;;;5107355;28;20028;-74
2022/11/20 07:59:12;;;;;;;24.30;10.93;;;2.20;99.90;;;;;;5094480;28;20071;-75
2022/11/20 08:01:38;;;;;;;24.52;11.15;;;2.20;99.90;;;;;;5093612;28;20036;-79
2022/11/20 08:04:04;;;;;;;28.67;13.15;;;2.20;99.90;;;;;;5106292;28;20028;-76
2022/11/20 08:06:33;;;;;;;32.90;13.15;;;2.30;99.90;;;;;;5090798;28;20492;-76
2022/11/20 08:09:03;;;;;;;20.75;11.15;;;2.30;99.90;;;;;;5085353;28;20035;-75
2022/11/20 08:14:13;;;;;;;20.17;10.00;;;2.30;99.90;;;;;;5095696;28;20097;-77
2022/11/20 08:16:47;;;;;;;23.42;10.00;;;2.30;99.90;;;;;;5091185;28;20071;-77
2022/11/20 08:19:14;;;;;;;;;;;2.40;99.90;;;;;;5090286;28;20040;-75
2022/11/20 08:21:40;;;;;;;21.15;9.23;;;2.40;99.90;;;;;;5085890;28;19908;-75
2022/11/20 08:24:11;;;;;;;19.58;9.98;;;2.40;99.90;;;;;;5085474;28;20033;-74
2022/11/20 08:26:38;;;;;;;18.10;9.35;;;2.40;99.90;;;;;;5086132;28;20044;-75
2022/11/20 08:29:04;;;;;;;19.05;9.60;;;2.50;99.90;;;;;;5086929;28;20056;-73
2022/11/20 08:31:30;;;;;;;19.17;9.57;;;2.60;99.90;;;;;;5084872;28;20020;-74
2022/11/20 08:33:56;;;;;;;22.15;10.38;;;2.70;99.90;;;;;;5085860;28;20384;-74
2022/11/20 08:36:23;;;;;;;18.42;9.52;;;2.70;99.90;;;;;;5086590;28;20025;-76
2022/11/20 08:38:50;;;;;;;20.30;9.90;;;2.70;99.90;;;;;;5085290;28;20040;-74
2022/11/20 08:41:26;;;;;;;16.95;9.35;;;2.80;99.90;;;;;;5098583;28;20077;-78
2022/11/20 08:44:06;;;;;;;20.65;9.38;;;2.70;99.90;;;;;;5085029;28;20031;-75
2022/11/20 08:46:40;;;;;;;18.20;9.00;;;2.70;99.90;;;;;;5085721;28;20435;-77
2022/11/20 08:49:07;;;;;;;;;;;2.70;99.90;;;;;;5085086;28;20029;-75
2022/11/20 08:51:34;;;;;;;21.35;9.02;;;2.70;99.90;;;;;;5086871;28;19909;-75
2022/11/20 08:54:00;;;;;;;21.58;10.10;;;2.70;99.90;;;;;;5094827;28;20036;-75
2022/11/20 08:56:25;;;;;;;17.08;9.55;;;2.70;99.90;;;;;;5090046;28;20035;-76
2022/11/20 08:58:52;;;;;;;18.75;9.57;;;2.70;99.90;;;;;;5094101;28;20044;-78
2022/11/20 09:01:18;;;;;;;22.58;10.63;;;2.70;99.90;;;;;;5091036;28;20020;-76
2022/11/20 09:03:50;;;;;;;20.40;10.27;;;2.70;99.90;;;;;;5088856;28;20875;-77
2022/11/20 09:06:16;;;;;;;19.08;9.60;;;2.60;99.90;;;;;;5098970;28;20035;-80
2022/11/20 09:08:42;;;;;;;22.02;10.15;;;2.60;99.90;;;;;;5104317;28;20050;-75
2022/11/20 09:11:08;;;;;;;23.05;10.27;;;2.60;99.90;;;;;;5093387;28;20032;-78
2022/11/20 09:13:35;;;;;;;25.80;11.88;;;2.60;99.90;;;;;;5090833;28;20047;-73
2022/11/20 09:16:04;;;;;;;24.17;11.77;;;2.60;99.90;;;;;;5096533;28;20043;-76
2022/11/20 09:18:31;;;;;;;26.27;10.93;;;2.70;99.90;;;;;;5096054;28;20097;-78
2022/11/20 09:21:01;;;;;;;21.92;9.77;;;2.70;99.90;;;;;;5098686;28;20030;-75
2022/11/20 09:23:31;;;;;;;23.40;10.52;;;2.70;99.90;;;;;;5101082;28;20040;-77
2022/11/20 09:25:59;;;;;;;25.27;10.75;;;2.70;99.90;;;;;;5086319;28;20040;-74
2022/11/20 09:28:25;;;;;;;19.05;10.55;;;2.70;99.90;;;;;;5083817;28;20031;-77
2022/11/20 09:30:51;;;;;;;20.58;10.23;;;2.70;99.90;;;;;;5095888;28;20029;-79
2022/11/20 09:33:17;;;;;;;22.58;10.55;;;2.70;99.90;;;;;;5094288;28;20074;-76
2022/11/20 09:35:43;;;;;;;23.02;11.35;;;2.60;99.90;;;;;;5082618;28;20032;-79
2022/11/20 09:38:10;;;;;;;26.40;10.80;;;2.60;99.90;;;;;;5093257;28;20044;-79
2022/11/20 09:40:43;;;;;;;24.80;11.50;;;2.50;99.90;;;;;;5083448;28;20027;-78
2022/11/20 09:43:24;;;;;;;21.70;11.02;;;2.50;99.90;;;;;;5085209;28;20044;-78
2022/11/20 09:46:08;;;;;;;22.90;10.65;;;2.50;99.90;;;;;;5090246;28;20037;-76
2022/11/20 09:48:39;;;;;;;24.38;11.35;;;2.50;99.90;;;;;;5085559;28;20040;-75
2022/11/20 09:51:39;;;;;;;21.65;11.50;;;2.50;99.90;;;;;;5084125;28;20020;-76
2022/11/20 09:54:27;;;;;;;24.58;11.68;;;2.50;99.90;;;;;;5095352;28;20045;-80
2022/11/20 09:57:09;;;;;;;22.35;10.57;;;2.50;99.90;;;;;;5094727;28;20032;-77
2022/11/20 09:59:46;;;;;;;27.15;12.95;;;2.40;99.90;;;;;;5089714;28;20054;-76
2022/11/20 10:02:24;;;;;;;25.08;11.23;;;2.40;99.90;;;;;;5084914;28;20052;-76
2022/11/20 10:04:59;;;;;;;32.38;15.70;;;2.40;99.90;;;;;;5098780;28;20047;-76
2022/11/20 10:07:40;;;;;;;28.88;13.43;;;2.50;99.90;;;;;;5084359;28;20029;-78
2022/11/20 10:10:21;;;;;;;25.45;12.07;;;2.50;99.90;;;;;;5102862;28;20078;-77
2022/11/20 10:13:03;;;;;;;22.58;11.30;;;2.50;99.90;;;;;;5102670;28;20561;-82
2022/11/20 10:16:01;;;;;;;23.50;10.77;;;2.50;99.90;;;;;;5094889;28;20039;-81
2022/11/20 10:18:44;;;;;;;21.48;10.65;;;2.50;99.90;;;;;;5091931;28;20076;-79
2022/11/20 10:21:38;;;;;;;19.23;9.98;;;2.60;99.90;;;;;;5093535;28;20032;-79
2022/11/20 10:24:35;;;;;;;18.15;9.23;;;2.60;99.90;;;;;;5096469;28;20044;-76
2022/11/20 10:27:38;;;;;;;25.05;10.35;;;2.60;99.90;;;;;;5094658;28;20077;-82
2022/11/20 10:30:16;;;;;;;24.23;12.07;;;2.70;99.90;;;;;;5104754;28;20396;-76
2022/11/20 10:32:47;;;;;;;25.58;13.70;;;2.70;99.90;;;;;;5095195;28;20084;-75
2022/11/20 10:35:27;;;;;;;22.67;10.25;;;2.80;99.90;;;;;;5084395;28;20108;-76
2022/11/20 10:38:02;;;;;;;18.45;10.10;;;2.80;99.90;;;;;;5087733;28;20378;-77
2022/11/20 10:43:46;;;;;;;18.77;9.40;;;2.90;99.90;;;;;;5098526;28;20063;-78
2022/11/20 10:46:23;;;;;;;21.83;10.00;;;2.90;99.90;;;;;;5091055;28;20027;-75
2022/11/20 10:48:51;;;;;;;23.88;10.90;;;3.00;99.90;;;;;;5091150;28;20024;-77
2022/11/20 10:51:57;;;;;;;26.83;12.25;;;3.00;99.90;;;;;;5089710;28;20031;-76
2022/11/20 10:54:28;;;;;;;20.00;11.07;;;3.10;99.90;;;;;;5082701;28;20029;-76
2022/11/20 10:57:03;;;;;;;25.67;12.80;;;3.20;99.90;;;;;;5095113;28;20067;-76
2022/11/20 10:59:48;;;;;;;26.02;12.25;;;3.10;99.90;;;;;;5092114;28;20033;-76
2022/11/20 11:02:17;;;;;;;28.27;13.27;;;3.20;99.90;;;;;;5088732;28;20028;-76
2022/11/20 11:04:49;;;;;;;25.40;12.43;;;3.30;99.90;;;;;;5091605;28;20088;-77
2022/11/20 11:07:41;;;;;;;33.25;14.25;;;3.50;99.90;;;;;;5086923;28;20082;-80
2022/11/20 11:10:32;;;;;;;29.92;14.25;;;3.50;99.90;;;;;;5084037;28;20052;-76
2022/11/20 11:12:57;;;;;;;36.05;15.85;;;3.50;99.90;;;;;;5092340;28;20028;-76
2022/11/20 11:15:28;;;;;;;25.70;12.50;;;3.60;99.90;;;;;;5094434;28;20031;-76
2022/11/20 11:17:54;;;;;;;26.42;13.73;;;3.50;99.90;;;;;;5084770;28;20044;-76
2022/11/20 11:20:22;;;;;;;25.88;13.63;;;3.50;99.90;;;;;;5092340;28;20036;-75
2022/11/20 11:22:55;;;;;;;27.73;14.40;;;3.50;99.90;;;;;;5094638;28;20050;-78
2022/11/20 11:25:24;;;;;;;27.92;14.93;;;3.40;99.90;;;;;;5099605;28;20055;-74
2022/11/20 11:27:51;;;;;;;29.20;14.48;;;3.30;99.90;;;;;;5087305;28;20031;-77
2022/11/20 11:30:19;;;;;;;28.67;13.73;;;3.20;99.90;;;;;;5086553;28;20078;-77
2022/11/20 11:32:45;;;;;;;31.42;15.55;;;3.20;99.90;;;;;;5100202;28;20024;-76
2022/11/20 11:35:27;;;;;;;32.72;15.68;;;3.10;99.90;;;;;;5092835;28;20334;-76
2022/11/20 11:38:02;;;;;;;31.00;14.32;;;3.00;99.90;;;;;;5090290;28;20036;-78
2022/11/20 11:40:31;;;;;;;32.05;15.60;;;3.00;99.90;;;;;;5091288;28;20051;-75
2022/11/20 11:43:01;;;;;;;26.63;13.00;;;2.90;99.90;;;;;;5082359;28;20041;-75
2022/11/20 11:45:27;;;;;;;25.55;12.43;;;2.90;99.90;;;;;;5102814;28;20032;-75
2022/11/20 11:47:56;;;;;;;28.27;14.10;;;2.80;99.90;;;;;;5103446;28;20464;-74
2022/11/20 11:50:24;;;;;;;31.98;14.07;;;2.80;99.90;;;;;;5099709;28;20025;-76
2022/11/20 11:53:21;;;;;;;26.50;12.65;;;2.80;99.90;;;;;;5083493;28;20020;-79
2022/11/20 11:56:10;;;;;;;34.53;13.57;;;2.80;99.90;;;;;;5083038;28;20028;-77
2022/11/20 11:58:50;;;;;;;27.83;13.40;;;2.80;99.90;;;;;;5082465;28;20059;-74
2022/11/20 12:01:29;;;;;;;29.75;13.25;;;2.80;99.90;;;;;;5097795;28;20024;-76
2022/11/20 12:04:13;;;;;;;33.78;14.15;;;2.80;99.90;;;;;;5088577;28;20036;-74
2022/11/20 12:06:47;;;;;;;34.80;16.25;;;2.90;99.90;;;;;;5086633;28;20024;-77
2022/11/20 12:09:17;;;;;;;32.25;15.05;;;2.90;99.90;;;;;;5096990;28;20107;-75
2022/11/20 12:12:05;;;;;;;49.80;22.60;;;3.00;99.90;;;;;;5106044;28;20115;-75
2022/11/20 12:14:35;;;;;;;34.22;17.90;;;3.00;99.90;;;;;;5090219;28;20029;-74
2022/11/20 12:17:04;;;;;;;35.65;14.77;;;3.30;99.90;;;;;;5096928;28;20088;-73
2022/11/20 12:19:33;;;;;;;30.27;14.45;;;3.70;99.90;;;;;;5104389;28;20086;-76
2022/11/20 12:22:31;;;;;;;29.23;12.90;;;4.20;99.90;;;;;;5106088;28;20380;-74
2022/11/20 12:25:38;;;;;;;27.65;13.63;;;4.60;99.90;;;;;;5089470;28;20028;-74
2022/11/20 12:28:36;;;;;;;26.15;12.75;;;4.90;99.90;;;;;;5096710;28;20071;-79
2022/11/20 12:31:28;;;;;;;30.90;15.23;;;5.30;99.90;;;;;;5094121;28;20028;-76
2022/11/20 12:34:48;;;;;;;32.03;13.88;;;5.50;99.90;;;;;;5085992;28;20036;-74
2022/11/20 12:37:35;;;;;;;24.95;12.80;;;5.70;99.90;;;;;;5077934;28;20047;-74
2022/11/20 12:40:29;;;;;;;28.70;13.90;;;5.80;99.90;;;;;;5093164;28;20052;-76
2022/11/20 12:46:27;;;;;;;25.38;12.63;;;5.90;99.90;;;;;;5096169;28;20043;-74
2022/11/20 12:49:11;;;;;;;27.52;13.45;;;6.00;99.90;;;;;;5084300;28;20051;-73
2022/11/20 12:51:40;;;;;;;;;;;6.10;99.90;;;;;;5094470;28;20412;-74
2022/11/20 12:54:05;;;;;;;25.65;13.05;;;6.10;99.90;;;;;;5103083;28;19920;-74
2022/11/20 12:56:45;;;;;;;26.77;13.20;;;6.10;99.90;;;;;;5094150;28;20017;-73
2022/11/20 12:59:27;;;;;;;22.30;12.95;;;6.20;99.90;;;;;;5085124;28;20095;-78
2022/11/20 13:02:25;;;;;;;25.77;12.40;;;6.10;99.90;;;;;;5088556;28;20025;-75
2022/11/20 13:05:19;;;;;;;23.48;12.20;;;6.00;99.90;;;;;;5079895;28;20047;-72
2022/11/20 13:07:47;;;;;;;33.33;15.73;;;5.70;99.90;;;;;;5096658;28;20024;-77
2022/11/20 13:10:33;;;;;;;40.42;17.90;;;5.50;99.90;;;;;;5106155;28;20080;-75